sensor_id;sensor_type;location;lat;lon;timestamp;P1;durP1;ratioP1;P2;durP2;ratioP2
78131;SDS011;67381;47.672;9.380;2023-04-24T00:01:11;3.40;;;1.30;;
78131;SDS011;67381;47.672;9.380;2023-04-24T00:03:39;2.13;;;1.15;;
78131;SDS011;67381;47.672;9.380;2023-04-24T00:06:07;2.25;;;1.25;;
78131;SDS011;67381;47.672;9.380;2023-04-24T00:08:36;2.25;;;1.15;;
78131;SDS011;67381;47.672;9.380;2023-04-24T00:11:04;2.00;;;1.08;;
78131;SDS011;67381;47.672;9.380;2023-04-24T00:13:31;2.78;;;1.25;;
78131;SDS011;67381;47.672;9.380;2023-04-24T00:15:58;5.78;;;1.33;;
78131;SDS011;67381;47.672;9.380;2023-04-24T00:18:26;2.50;;;0.90;;
78131;SDS011;67381;47.672;9.380;2023-04-24T00:20:53;4.40;;;1.00;;
78131;SDS011;67381;47.672;9.380;2023-04-24T00:23:20;3.00;;;1.35;;
78131;SDS011;67381;47.672;9.380;2023-04-24T00:25:47;3.05;;;0.70;;
78131;SDS011;67381;47.672;9.380;2023-04-24T00:28:15;2.25;;;0.98;;
78131;SDS011;67381;47.672;9.380;2023-04-24T00:30:42;1.83;;;1.10;;
78131;SDS011;67381;47.672;9.380;2023-04-24T00:33:09;4.25;;;1.20;;
78131;SDS011;67381;47.672;9.380;2023-04-24T00:35:36;4.30;;;1.73;;
78131;SDS011;67381;47.672;9.380;2023-04-24T00:38:03;2.97;;;1.52;;
78131;SDS011;67381;47.672;9.380;2023-04-24T00:40:31;2.33;;;1.23;;
78131;SDS011;67381;47.672;9.380;2023-04-24T00:42:58;3.05;;;1.02;;
78131;SDS011;67381;47.672;9.380;2023-04-24T00:45:25;3.17;;;1.27;;
78131;SDS011;67381;47.672;9.380;2023-04-24T00:47:53;4.72;;;1.30;;
78131;SDS011;67381;47.672;9.380;2023-04-24T00:50:20;2.63;;;1.10;;
78131;SDS011;67381;47.672;9.380;2023-04-24T00:52:48;1.83;;;1.00;;
78131;SDS011;67381;47.672;9.380;2023-04-24T00:55:15;2.65;;;1.20;;
78131;SDS011;67381;47.672;9.380;2023-04-24T00:57:43;2.08;;;1.20;;
78131;SDS011;67381;47.672;9.380;2023-04-24T01:00:11;3.35;;;0.98;;
78131;SDS011;67381;47.672;9.380;2023-04-24T01:02:39;1.80;;;1.00;;
78131;SDS011;67381;47.672;9.380;2023-04-24T01:05:11;2.22;;;1.15;;
78131;SDS011;67381;47.672;9.380;2023-04-24T01:07:43;3.83;;;1.10;;
78131;SDS011;67381;47.672;9.380;2023-04-24T01:10:13;4.18;;;1.20;;
78131;SDS011;67381;47.672;9.380;2023-04-24T01:12:40;1.92;;;1.08;;
78131;SDS011;67381;47.672;9.380;2023-04-24T01:15:08;2.28;;;1.10;;
78131;SDS011;67381;47.672;9.380;2023-04-24T01:17:36;2.13;;;0.98;;
78131;SDS011;67381;47.672;9.380;2023-04-24T01:20:04;2.38;;;1.33;;
78131;SDS011;67381;47.672;9.380;2023-04-24T01:22:33;9.45;;;1.60;;
78131;SDS011;67381;47.672;9.380;2023-04-24T01:25:01;5.43;;;1.83;;
78131;SDS011;67381;47.672;9.380;2023-04-24T01:27:29;2.53;;;1.17;;
78131;SDS011;67381;47.672;9.380;2023-04-24T01:29:56;3.83;;;1.30;;
78131;SDS011;67381;47.672;9.380;2023-04-24T01:32:24;3.38;;;1.73;;
78131;SDS011;67381;47.672;9.380;2023-04-24T01:34:52;2.28;;;1.10;;
78131;SDS011;67381;47.672;9.380;2023-04-24T01:37:19;2.95;;;1.05;;
78131;SDS011;67381;47.672;9.380;2023-04-24T01:39:46;2.10;;;1.10;;
78131;SDS011;67381;47.672;9.380;2023-04-24T01:42:14;4.00;;;1.50;;
78131;SDS011;67381;47.672;9.380;2023-04-24T01:44:41;2.13;;;1.38;;
78131;SDS011;67381;47.672;9.380;2023-04-24T01:47:09;1.65;;;1.23;;
78131;SDS011;67381;47.672;9.380;2023-04-24T01:49:37;2.33;;;1.13;;
78131;SDS011;67381;47.672;9.380;2023-04-24T01:52:05;2.53;;;1.00;;
78131;SDS011;67381;47.672;9.380;2023-04-24T01:54:32;2.00;;;1.30;;
78131;SDS011;67381;47.672;9.380;2023-04-24T01:57:00;1.88;;;1.10;;
78131;SDS011;67381;47.672;9.380;2023-04-24T01:59:28;2.90;;;1.05;;
78131;SDS011;67381;47.672;9.380;2023-04-24T02:01:57;3.13;;;1.33;;
78131;SDS011;67381;47.672;9.380;2023-04-24T02:04:24;1.63;;;0.98;;
78131;SDS011;67381;47.672;9.380;2023-04-24T02:06:51;2.00;;;1.40;;
78131;SDS011;67381;47.672;9.380;2023-04-24T02:09:18;3.55;;;0.52;;
78131;SDS011;67381;47.672;9.380;2023-04-24T02:11:46;1.80;;;0.70;;
78131;SDS011;67381;47.672;9.380;2023-04-24T02:14:13;1.88;;;0.90;;
78131;SDS011;67381;47.672;9.380;2023-04-24T02:16:40;1.70;;;1.40;;
78131;SDS011;67381;47.672;9.380;2023-04-24T02:19:07;1.90;;;0.95;;
78131;SDS011;67381;47.672;9.380;2023-04-24T02:21:35;1.27;;;0.80;;
78131;SDS011;67381;47.672;9.380;2023-04-24T02:24:02;1.42;;;0.70;;
78131;SDS011;67381;47.672;9.380;2023-04-24T02:26:29;1.80;;;1.00;;
78131;SDS011;67381;47.672;9.380;2023-04-24T02:28:58;2.03;;;0.60;;
78131;SDS011;67381;47.672;9.380;2023-04-24T02:31:25;1.77;;;0.80;;
78131;SDS011;67381;47.672;9.380;2023-04-24T02:33:53;1.55;;;1.00;;
78131;SDS011;67381;47.672;9.380;2023-04-24T02:36:20;1.48;;;0.90;;
78131;SDS011;67381;47.672;9.380;2023-04-24T02:38:47;1.40;;;0.95;;
78131;SDS011;67381;47.672;9.380;2023-04-24T02:41:15;4.57;;;1.52;;
78131;SDS011;67381;47.672;9.380;2023-04-24T02:43:45;1.60;;;1.10;;
78131;SDS011;67381;47.672;9.380;2023-04-24T02:46:12;2.60;;;1.30;;
78131;SDS011;67381;47.672;9.380;2023-04-24T02:48:39;1.42;;;0.80;;
78131;SDS011;67381;47.672;9.380;2023-04-24T02:51:06;1.60;;;0.73;;
78131;SDS011;67381;47.672;9.380;2023-04-24T02:53:34;1.40;;;0.80;;
78131;SDS011;67381;47.672;9.380;2023-04-24T02:56:01;2.80;;;0.95;;
78131;SDS011;67381;47.672;9.380;2023-04-24T02:58:28;3.95;;;2.20;;
78131;SDS011;67381;47.672;9.380;2023-04-24T03:00:55;2.08;;;0.95;;
78131;SDS011;67381;47.672;9.380;2023-04-24T03:03:23;1.25;;;0.80;;
78131;SDS011;67381;47.672;9.380;2023-04-24T03:05:50;1.77;;;1.05;;
78131;SDS011;67381;47.672;9.380;2023-04-24T03:08:18;1.00;;;0.60;;
78131;SDS011;67381;47.672;9.380;2023-04-24T03:10:45;1.63;;;0.50;;
78131;SDS011;67381;47.672;9.380;2023-04-24T03:13:14;1.50;;;0.68;;
78131;SDS011;67381;47.672;9.380;2023-04-24T03:15:42;1.05;;;0.73;;
78131;SDS011;67381;47.672;9.380;2023-04-24T03:18:10;1.63;;;0.93;;
78131;SDS011;67381;47.672;9.380;2023-04-24T03:20:37;1.33;;;0.82;;
78131;SDS011;67381;47.672;9.380;2023-04-24T03:23:04;1.15;;;0.63;;
78131;SDS011;67381;47.672;9.380;2023-04-24T03:25:31;1.27;;;0.73;;
78131;SDS011;67381;47.672;9.380;2023-04-24T03:27:59;1.00;;;0.70;;
78131;SDS011;67381;47.672;9.380;2023-04-24T03:30:26;0.60;;;0.50;;
78131;SDS011;67381;47.672;9.380;2023-04-24T03:32:53;1.02;;;0.77;;
78131;SDS011;67381;47.672;9.380;2023-04-24T03:35:20;1.73;;;0.75;;
78131;SDS011;67381;47.672;9.380;2023-04-24T03:37:48;13.20;;;2.92;;
78131;SDS011;67381;47.672;9.380;2023-04-24T03:40:16;1.08;;;0.70;;
78131;SDS011;67381;47.672;9.380;2023-04-24T03:42:43;1.65;;;0.80;;
78131;SDS011;67381;47.672;9.380;2023-04-24T03:45:10;1.40;;;1.30;;
78131;SDS011;67381;47.672;9.380;2023-04-24T03:47:37;1.35;;;0.80;;
78131;SDS011;67381;47.672;9.380;2023-04-24T03:50:04;1.77;;;0.68;;
78131;SDS011;67381;47.672;9.380;2023-04-24T03:52:32;1.17;;;0.77;;
78131;SDS011;67381;47.672;9.380;2023-04-24T03:54:59;0.73;;;0.38;;
78131;SDS011;67381;47.672;9.380;2023-04-24T03:57:26;1.50;;;0.90;;
78131;SDS011;67381;47.672;9.380;2023-04-24T03:59:54;0.77;;;0.43;;
78131;SDS011;67381;47.672;9.380;2023-04-24T04:02:21;1.13;;;0.90;;
78131;SDS011;67381;47.672;9.380;2023-04-24T04:04:48;0.85;;;0.60;;
78131;SDS011;67381;47.672;9.380;2023-04-24T04:07:16;0.70;;;0.60;;
78131;SDS011;67381;47.672;9.380;2023-04-24T04:09:43;1.23;;;0.50;;
78131;SDS011;67381;47.672;9.380;2023-04-24T04:12:11;0.88;;;0.63;;
78131;SDS011;67381;47.672;9.380;2023-04-24T04:14:39;1.20;;;0.70;;
78131;SDS011;67381;47.672;9.380;2023-04-24T04:17:06;1.15;;;0.63;;
78131;SDS011;67381;47.672;9.380;2023-04-24T04:19:34;1.65;;;0.68;;
78131;SDS011;67381;47.672;9.380;2023-04-24T04:22:01;0.50;;;0.38;;
78131;SDS011;67381;47.672;9.380;2023-04-24T04:24:28;1.60;;;1.13;;
78131;SDS011;67381;47.672;9.380;2023-04-24T04:26:55;1.98;;;1.00;;
78131;SDS011;67381;47.672;9.380;2023-04-24T04:29:24;3.42;;;1.80;;
78131;SDS011;67381;47.672;9.380;2023-04-24T04:31:52;3.17;;;1.75;;
78131;SDS011;67381;47.672;9.380;2023-04-24T04:34:20;2.58;;;1.20;;
78131;SDS011;67381;47.672;9.380;2023-04-24T04:36:47;2.92;;;1.30;;
78131;SDS011;67381;47.672;9.380;2023-04-24T04:39:14;1.90;;;1.15;;
78131;SDS011;67381;47.672;9.380;2023-04-24T04:41:42;1.70;;;0.90;;
78131;SDS011;67381;47.672;9.380;2023-04-24T04:44:09;0.98;;;0.60;;
78131;SDS011;67381;47.672;9.380;2023-04-24T04:46:36;1.08;;;0.70;;
78131;SDS011;67381;47.672;9.380;2023-04-24T04:49:05;1.45;;;0.75;;
78131;SDS011;67381;47.672;9.380;2023-04-24T04:51:32;1.10;;;0.70;;
78131;SDS011;67381;47.672;9.380;2023-04-24T04:54:00;1.20;;;0.90;;
78131;SDS011;67381;47.672;9.380;2023-04-24T04:56:27;1.40;;;0.80;;
78131;SDS011;67381;47.672;9.380;2023-04-24T04:58:54;1.13;;;0.73;;
78131;SDS011;67381;47.672;9.380;2023-04-24T05:01:21;2.75;;;0.88;;
78131;SDS011;67381;47.672;9.380;2023-04-24T05:03:49;1.83;;;1.27;;
78131;SDS011;67381;47.672;9.380;2023-04-24T05:06:17;2.33;;;0.90;;
78131;SDS011;67381;47.672;9.380;2023-04-24T05:08:44;3.42;;;0.88;;
78131;SDS011;67381;47.672;9.380;2023-04-24T05:11:11;1.90;;;1.08;;
78131;SDS011;67381;47.672;9.380;2023-04-24T05:13:39;2.00;;;0.90;;
78131;SDS011;67381;47.672;9.380;2023-04-24T05:16:07;2.30;;;0.85;;
78131;SDS011;67381;47.672;9.380;2023-04-24T05:18:34;4.00;;;1.48;;
78131;SDS011;67381;47.672;9.380;2023-04-24T05:21:01;5.40;;;1.42;;
78131;SDS011;67381;47.672;9.380;2023-04-24T05:23:28;3.10;;;1.00;;
78131;SDS011;67381;47.672;9.380;2023-04-24T05:25:56;2.55;;;1.60;;
78131;SDS011;67381;47.672;9.380;2023-04-24T05:28:23;2.10;;;1.08;;
78131;SDS011;67381;47.672;9.380;2023-04-24T05:30:53;2.05;;;0.77;;
78131;SDS011;67381;47.672;9.380;2023-04-24T05:33:22;1.00;;;0.55;;
78131;SDS011;67381;47.672;9.380;2023-04-24T05:35:49;1.42;;;0.88;;
78131;SDS011;67381;47.672;9.380;2023-04-24T05:38:17;1.17;;;0.77;;
78131;SDS011;67381;47.672;9.380;2023-04-24T05:40:47;1.63;;;0.82;;
78131;SDS011;67381;47.672;9.380;2023-04-24T05:43:14;1.80;;;1.00;;
78131;SDS011;67381;47.672;9.380;2023-04-24T05:45:41;1.33;;;0.77;;
78131;SDS011;67381;47.672;9.380;2023-04-24T05:48:08;1.38;;;0.77;;
78131;SDS011;67381;47.672;9.380;2023-04-24T05:50:36;1.65;;;0.85;;
78131;SDS011;67381;47.672;9.380;2023-04-24T05:53:03;1.17;;;0.60;;
78131;SDS011;67381;47.672;9.380;2023-04-24T05:55:30;1.70;;;1.00;;
78131;SDS011;67381;47.672;9.380;2023-04-24T05:57:58;1.30;;;0.93;;
78131;SDS011;67381;47.672;9.380;2023-04-24T06:00:25;1.73;;;0.80;;
78131;SDS011;67381;47.672;9.380;2023-04-24T06:02:53;2.65;;;0.80;;
78131;SDS011;67381;47.672;9.380;2023-04-24T06:05:21;1.77;;;1.10;;
78131;SDS011;67381;47.672;9.380;2023-04-24T06:07:48;2.03;;;1.00;;
78131;SDS011;67381;47.672;9.380;2023-04-24T06:10:16;1.30;;;0.77;;
78131;SDS011;67381;47.672;9.380;2023-04-24T06:12:43;1.40;;;0.70;;
78131;SDS011;67381;47.672;9.380;2023-04-24T06:15:10;2.30;;;0.90;;
78131;SDS011;67381;47.672;9.380;2023-04-24T06:17:38;2.38;;;1.10;;
78131;SDS011;67381;47.672;9.380;2023-04-24T06:20:05;2.53;;;1.30;;
78131;SDS011;67381;47.672;9.380;2023-04-24T06:22:34;2.20;;;0.90;;
78131;SDS011;67381;47.672;9.380;2023-04-24T06:25:02;1.83;;;1.00;;
78131;SDS011;67381;47.672;9.380;2023-04-24T06:27:29;3.08;;;1.20;;
78131;SDS011;67381;47.672;9.380;2023-04-24T06:29:56;2.75;;;0.63;;
78131;SDS011;67381;47.672;9.380;2023-04-24T06:32:24;2.72;;;1.00;;
78131;SDS011;67381;47.672;9.380;2023-04-24T06:34:51;1.70;;;0.98;;
78131;SDS011;67381;47.672;9.380;2023-04-24T06:37:20;1.77;;;1.13;;
78131;SDS011;67381;47.672;9.380;2023-04-24T06:39:47;3.17;;;1.23;;
78131;SDS011;67381;47.672;9.380;2023-04-24T06:42:14;1.80;;;1.10;;
78131;SDS011;67381;47.672;9.380;2023-04-24T06:44:42;3.10;;;1.27;;
78131;SDS011;67381;47.672;9.380;2023-04-24T06:47:09;1.65;;;1.10;;
78131;SDS011;67381;47.672;9.380;2023-04-24T06:49:37;2.78;;;1.10;;
78131;SDS011;67381;47.672;9.380;2023-04-24T06:52:05;2.15;;;1.40;;
78131;SDS011;67381;47.672;9.380;2023-04-24T06:54:32;2.33;;;1.27;;
78131;SDS011;67381;47.672;9.380;2023-04-24T06:56:59;2.20;;;1.20;;
78131;SDS011;67381;47.672;9.380;2023-04-24T06:59:30;3.72;;;1.13;;
78131;SDS011;67381;47.672;9.380;2023-04-24T07:01:57;2.00;;;1.35;;
78131;SDS011;67381;47.672;9.380;2023-04-24T07:04:25;2.03;;;1.27;;
78131;SDS011;67381;47.672;9.380;2023-04-24T07:06:52;2.78;;;1.50;;
78131;SDS011;67381;47.672;9.380;2023-04-24T07:09:23;4.35;;;1.98;;
78131;SDS011;67381;47.672;9.380;2023-04-24T07:11:51;2.38;;;1.40;;
78131;SDS011;67381;47.672;9.380;2023-04-24T07:14:18;2.25;;;1.15;;
78131;SDS011;67381;47.672;9.380;2023-04-24T07:16:46;2.45;;;1.50;;
78131;SDS011;67381;47.672;9.380;2023-04-24T07:19:13;3.45;;;1.65;;
78131;SDS011;67381;47.672;9.380;2023-04-24T07:21:40;3.05;;;2.00;;
78131;SDS011;67381;47.672;9.380;2023-04-24T07:24:08;5.95;;;1.80;;
78131;SDS011;67381;47.672;9.380;2023-04-24T07:26:39;3.55;;;1.52;;
78131;SDS011;67381;47.672;9.380;2023-04-24T07:29:07;2.85;;;1.77;;
78131;SDS011;67381;47.672;9.380;2023-04-24T07:31:34;3.85;;;1.35;;
78131;SDS011;67381;47.672;9.380;2023-04-24T07:34:02;2.65;;;1.52;;
78131;SDS011;67381;47.672;9.380;2023-04-24T07:36:29;3.03;;;2.08;;
78131;SDS011;67381;47.672;9.380;2023-04-24T07:38:56;4.68;;;1.98;;
78131;SDS011;67381;47.672;9.380;2023-04-24T07:41:24;6.03;;;1.88;;
78131;SDS011;67381;47.672;9.380;2023-04-24T07:43:52;3.05;;;2.30;;
78131;SDS011;67381;47.672;9.380;2023-04-24T07:46:20;3.03;;;1.80;;
78131;SDS011;67381;47.672;9.380;2023-04-24T07:48:48;5.40;;;2.13;;
78131;SDS011;67381;47.672;9.380;2023-04-24T07:51:19;3.88;;;1.83;;
78131;SDS011;67381;47.672;9.380;2023-04-24T07:53:46;3.03;;;1.63;;
78131;SDS011;67381;47.672;9.380;2023-04-24T07:56:14;2.90;;;1.73;;
78131;SDS011;67381;47.672;9.380;2023-04-24T07:58:41;3.03;;;1.92;;
78131;SDS011;67381;47.672;9.380;2023-04-24T08:01:08;4.53;;;2.13;;
78131;SDS011;67381;47.672;9.380;2023-04-24T08:03:36;4.90;;;1.83;;
78131;SDS011;67381;47.672;9.380;2023-04-24T08:06:03;4.30;;;1.75;;
78131;SDS011;67381;47.672;9.380;2023-04-24T08:08:30;3.05;;;1.83;;
78131;SDS011;67381;47.672;9.380;2023-04-24T08:10:58;9.52;;;1.88;;
78131;SDS011;67381;47.672;9.380;2023-04-24T08:13:25;2.63;;;1.63;;
78131;SDS011;67381;47.672;9.380;2023-04-24T08:15:52;3.95;;;1.65;;
78131;SDS011;67381;47.672;9.380;2023-04-24T08:18:20;2.88;;;1.92;;
78131;SDS011;67381;47.672;9.380;2023-04-24T08:20:47;3.58;;;1.73;;
78131;SDS011;67381;47.672;9.380;2023-04-24T08:23:14;2.38;;;1.42;;
78131;SDS011;67381;47.672;9.380;2023-04-24T08:25:41;2.38;;;1.20;;
78131;SDS011;67381;47.672;9.380;2023-04-24T08:28:09;2.50;;;1.58;;
78131;SDS011;67381;47.672;9.380;2023-04-24T08:30:37;3.58;;;1.60;;
78131;SDS011;67381;47.672;9.380;2023-04-24T08:33:05;3.15;;;2.17;;
78131;SDS011;67381;47.672;9.380;2023-04-24T08:35:32;3.10;;;1.50;;
78131;SDS011;67381;47.672;9.380;2023-04-24T08:37:59;2.80;;;1.25;;
78131;SDS011;67381;47.672;9.380;2023-04-24T08:40:28;3.38;;;1.23;;
78131;SDS011;67381;47.672;9.380;2023-04-24T08:42:58;3.78;;;1.42;;
78131;SDS011;67381;47.672;9.380;2023-04-24T08:45:26;3.45;;;1.48;;
78131;SDS011;67381;47.672;9.380;2023-04-24T08:47:53;3.03;;;1.52;;
78131;SDS011;67381;47.672;9.380;2023-04-24T08:50:23;4.18;;;1.60;;
78131;SDS011;67381;47.672;9.380;2023-04-24T08:52:52;5.43;;;1.63;;
78131;SDS011;67381;47.672;9.380;2023-04-24T08:55:24;1.88;;;1.25;;
78131;SDS011;67381;47.672;9.380;2023-04-24T08:57:52;3.35;;;1.65;;
78131;SDS011;67381;47.672;9.380;2023-04-24T09:00:20;4.80;;;1.95;;
78131;SDS011;67381;47.672;9.380;2023-04-24T09:02:52;3.78;;;1.63;;
78131;SDS011;67381;47.672;9.380;2023-04-24T09:05:20;2.78;;;1.58;;
78131;SDS011;67381;47.672;9.380;2023-04-24T09:07:57;3.47;;;1.58;;
78131;SDS011;67381;47.672;9.380;2023-04-24T09:10:29;2.88;;;1.85;;
78131;SDS011;67381;47.672;9.380;2023-04-24T09:12:57;2.97;;;2.30;;
78131;SDS011;67381;47.672;9.380;2023-04-24T09:15:25;2.83;;;1.83;;
78131;SDS011;67381;47.672;9.380;2023-04-24T09:17:53;2.75;;;1.77;;
78131;SDS011;67381;47.672;9.380;2023-04-24T09:20:20;2.53;;;1.50;;
78131;SDS011;67381;47.672;9.380;2023-04-24T09:22:48;3.70;;;1.92;;
78131;SDS011;67381;47.672;9.380;2023-04-24T09:25:15;3.58;;;1.58;;
78131;SDS011;67381;47.672;9.380;2023-04-24T09:27:43;3.38;;;1.75;;
78131;SDS011;67381;47.672;9.380;2023-04-24T09:30:11;3.38;;;1.50;;
78131;SDS011;67381;47.672;9.380;2023-04-24T09:32:39;5.25;;;1.65;;
78131;SDS011;67381;47.672;9.380;2023-04-24T09:35:09;2.50;;;1.38;;
78131;SDS011;67381;47.672;9.380;2023-04-24T09:37:38;3.45;;;1.50;;
78131;SDS011;67381;47.672;9.380;2023-04-24T09:42:53;2.97;;;1.73;;
78131;SDS011;67381;47.672;9.380;2023-04-24T09:45:28;2.88;;;1.65;;
78131;SDS011;67381;47.672;9.380;2023-04-24T09:47:56;4.10;;;2.42;;
78131;SDS011;67381;47.672;9.380;2023-04-24T09:50:23;3.47;;;1.98;;
78131;SDS011;67381;47.672;9.380;2023-04-24T09:52:57;3.78;;;1.83;;
78131;SDS011;67381;47.672;9.380;2023-04-24T09:55:25;3.85;;;1.70;;
78131;SDS011;67381;47.672;9.380;2023-04-24T09:57:55;5.20;;;1.90;;
78131;SDS011;67381;47.672;9.380;2023-04-24T10:02:50;4.47;;;1.55;;
78131;SDS011;67381;47.672;9.380;2023-04-24T10:05:24;5.00;;;1.88;;
78131;SDS011;67381;47.672;9.380;2023-04-24T10:10:48;3.05;;;1.60;;
78131;SDS011;67381;47.672;9.380;2023-04-24T10:13:15;4.72;;;1.70;;
78131;SDS011;67381;47.672;9.380;2023-04-24T10:15:42;4.68;;;1.85;;
78131;SDS011;67381;47.672;9.380;2023-04-24T10:18:10;4.60;;;1.85;;
78131;SDS011;67381;47.672;9.380;2023-04-24T10:20:39;5.03;;;1.80;;
78131;SDS011;67381;47.672;9.380;2023-04-24T10:23:07;3.72;;;1.55;;
78131;SDS011;67381;47.672;9.380;2023-04-24T10:25:35;4.70;;;2.15;;
78131;SDS011;67381;47.672;9.380;2023-04-24T10:28:03;4.25;;;1.38;;
78131;SDS011;67381;47.672;9.380;2023-04-24T10:30:32;4.00;;;2.08;;
78131;SDS011;67381;47.672;9.380;2023-04-24T10:33:03;3.15;;;1.30;;
78131;SDS011;67381;47.672;9.380;2023-04-24T10:35:32;3.65;;;1.42;;
78131;SDS011;67381;47.672;9.380;2023-04-24T10:38:08;3.20;;;1.58;;
78131;SDS011;67381;47.672;9.380;2023-04-24T10:40:38;3.97;;;1.60;;
78131;SDS011;67381;47.672;9.380;2023-04-24T10:43:06;5.03;;;2.03;;
78131;SDS011;67381;47.672;9.380;2023-04-24T10:45:35;4.95;;;1.25;;
78131;SDS011;67381;47.672;9.380;2023-04-24T10:48:03;4.13;;;1.52;;
78131;SDS011;67381;47.672;9.380;2023-04-24T10:50:44;3.80;;;1.63;;
78131;SDS011;67381;47.672;9.380;2023-04-24T10:53:16;3.85;;;1.13;;
78131;SDS011;67381;47.672;9.380;2023-04-24T10:55:52;4.70;;;1.50;;
78131;SDS011;67381;47.672;9.380;2023-04-24T10:58:35;5.55;;;1.95;;
78131;SDS011;67381;47.672;9.380;2023-04-24T11:01:07;3.05;;;1.60;;
78131;SDS011;67381;47.672;9.380;2023-04-24T11:03:34;2.67;;;1.33;;
78131;SDS011;67381;47.672;9.380;2023-04-24T11:06:04;3.90;;;1.50;;
78131;SDS011;67381;47.672;9.380;2023-04-24T11:08:37;2.78;;;1.60;;
78131;SDS011;67381;47.672;9.380;2023-04-24T11:11:16;4.60;;;1.80;;
78131;SDS011;67381;47.672;9.380;2023-04-24T11:16:29;4.70;;;1.55;;
78131;SDS011;67381;47.672;9.380;2023-04-24T11:19:00;4.22;;;1.88;;
78131;SDS011;67381;47.672;9.380;2023-04-24T11:21:31;3.60;;;1.65;;
78131;SDS011;67381;47.672;9.380;2023-04-24T11:24:25;6.68;;;1.60;;
78131;SDS011;67381;47.672;9.380;2023-04-24T11:26:53;4.00;;;1.90;;
78131;SDS011;67381;47.672;9.380;2023-04-24T11:29:22;4.13;;;1.40;;
78131;SDS011;67381;47.672;9.380;2023-04-24T11:31:49;3.03;;;1.45;;
78131;SDS011;67381;47.672;9.380;2023-04-24T11:34:18;3.70;;;1.55;;
78131;SDS011;67381;47.672;9.380;2023-04-24T11:36:46;2.90;;;1.50;;
78131;SDS011;67381;47.672;9.380;2023-04-24T11:39:14;2.63;;;1.45;;
78131;SDS011;67381;47.672;9.380;2023-04-24T11:41:42;3.28;;;1.60;;
78131;SDS011;67381;47.672;9.380;2023-04-24T11:44:09;3.28;;;1.30;;
78131;SDS011;67381;47.672;9.380;2023-04-24T11:46:38;2.50;;;1.45;;
78131;SDS011;67381;47.672;9.380;2023-04-24T11:49:06;3.05;;;1.42;;
78131;SDS011;67381;47.672;9.380;2023-04-24T11:51:34;5.82;;;2.13;;
78131;SDS011;67381;47.672;9.380;2023-04-24T11:54:07;2.80;;;1.70;;
78131;SDS011;67381;47.672;9.380;2023-04-24T11:56:34;4.05;;;1.60;;
78131;SDS011;67381;47.672;9.380;2023-04-24T11:59:03;2.75;;;1.42;;
78131;SDS011;67381;47.672;9.380;2023-04-24T12:01:42;4.55;;;1.23;;
78131;SDS011;67381;47.672;9.380;2023-04-24T12:04:10;3.78;;;1.50;;
78131;SDS011;67381;47.672;9.380;2023-04-24T12:06:37;2.85;;;1.20;;
78131;SDS011;67381;47.672;9.380;2023-04-24T12:09:05;4.57;;;1.85;;
78131;SDS011;67381;47.672;9.380;2023-04-24T12:11:52;3.30;;;2.08;;
78131;SDS011;67381;47.672;9.380;2023-04-24T12:14:23;3.42;;;1.00;;
78131;SDS011;67381;47.672;9.380;2023-04-24T12:16:51;5.85;;;2.45;;
78131;SDS011;67381;47.672;9.380;2023-04-24T12:19:21;2.40;;;1.40;;
78131;SDS011;67381;47.672;9.380;2023-04-24T12:21:59;4.10;;;1.60;;
78131;SDS011;67381;47.672;9.380;2023-04-24T12:24:30;3.03;;;1.50;;
78131;SDS011;67381;47.672;9.380;2023-04-24T12:26:58;3.63;;;1.50;;
78131;SDS011;67381;47.672;9.380;2023-04-24T12:29:25;3.97;;;1.33;;
78131;SDS011;67381;47.672;9.380;2023-04-24T12:31:53;4.13;;;1.65;;
78131;SDS011;67381;47.672;9.380;2023-04-24T12:34:21;4.45;;;1.50;;
78131;SDS011;67381;47.672;9.380;2023-04-24T12:36:50;3.50;;;1.52;;
78131;SDS011;67381;47.672;9.380;2023-04-24T12:39:18;3.47;;;1.48;;
78131;SDS011;67381;47.672;9.380;2023-04-24T12:42:04;3.30;;;1.65;;
78131;SDS011;67381;47.672;9.380;2023-04-24T12:44:32;4.50;;;1.63;;
78131;SDS011;67381;47.672;9.380;2023-04-24T12:47:01;3.35;;;1.48;;
78131;SDS011;67381;47.672;9.380;2023-04-24T12:49:31;3.65;;;1.35;;
78131;SDS011;67381;47.672;9.380;2023-04-24T12:51:58;2.90;;;1.15;;
78131;SDS011;67381;47.672;9.380;2023-04-24T12:54:26;4.68;;;2.03;;
78131;SDS011;67381;47.672;9.380;2023-04-24T12:56:59;3.78;;;1.52;;
78131;SDS011;67381;47.672;9.380;2023-04-24T12:59:27;3.90;;;1.52;;
78131;SDS011;67381;47.672;9.380;2023-04-24T13:01:54;5.13;;;1.42;;
78131;SDS011;67381;47.672;9.380;2023-04-24T13:04:21;3.58;;;1.65;;
78131;SDS011;67381;47.672;9.380;2023-04-24T13:06:48;4.85;;;1.75;;
78131;SDS011;67381;47.672;9.380;2023-04-24T13:09:16;2.58;;;1.55;;
78131;SDS011;67381;47.672;9.380;2023-04-24T13:11:43;2.95;;;1.58;;
78131;SDS011;67381;47.672;9.380;2023-04-24T13:14:10;3.28;;;1.23;;
78131;SDS011;67381;47.672;9.380;2023-04-24T13:16:37;3.42;;;1.58;;
78131;SDS011;67381;47.672;9.380;2023-04-24T13:19:05;2.45;;;1.27;;
78131;SDS011;67381;47.672;9.380;2023-04-24T13:21:32;3.58;;;1.77;;
78131;SDS011;67381;47.672;9.380;2023-04-24T13:23:59;2.78;;;1.48;;
78131;SDS011;67381;47.672;9.380;2023-04-24T13:26:27;3.08;;;1.35;;
78131;SDS011;67381;47.672;9.380;2023-04-24T13:28:54;3.38;;;1.35;;
78131;SDS011;67381;47.672;9.380;2023-04-24T13:31:21;3.35;;;1.63;;
78131;SDS011;67381;47.672;9.380;2023-04-24T13:33:48;2.83;;;1.52;;
78131;SDS011;67381;47.672;9.380;2023-04-24T13:36:16;2.30;;;1.42;;
78131;SDS011;67381;47.672;9.380;2023-04-24T13:38:46;2.95;;;1.85;;
78131;SDS011;67381;47.672;9.380;2023-04-24T13:41:13;2.45;;;1.33;;
78131;SDS011;67381;47.672;9.380;2023-04-24T13:43:40;4.03;;;1.40;;
78131;SDS011;67381;47.672;9.380;2023-04-24T13:46:09;3.85;;;1.50;;
78131;SDS011;67381;47.672;9.380;2023-04-24T13:48:37;4.50;;;1.70;;
78131;SDS011;67381;47.672;9.380;2023-04-24T13:51:04;4.65;;;1.63;;
78131;SDS011;67381;47.672;9.380;2023-04-24T13:53:31;3.70;;;1.83;;
78131;SDS011;67381;47.672;9.380;2023-04-24T13:55:59;3.63;;;1.65;;
78131;SDS011;67381;47.672;9.380;2023-04-24T13:58:26;3.72;;;2.00;;
78131;SDS011;67381;47.672;9.380;2023-04-24T14:00:54;4.40;;;1.23;;
78131;SDS011;67381;47.672;9.380;2023-04-24T14:03:21;4.78;;;1.70;;
78131;SDS011;67381;47.672;9.380;2023-04-24T14:05:48;3.25;;;1.60;;
78131;SDS011;67381;47.672;9.380;2023-04-24T14:08:15;2.92;;;1.55;;
78131;SDS011;67381;47.672;9.380;2023-04-24T14:10:42;3.15;;;1.23;;
78131;SDS011;67381;47.672;9.380;2023-04-24T14:13:10;3.58;;;1.95;;
78131;SDS011;67381;47.672;9.380;2023-04-24T14:15:37;6.78;;;1.65;;
78131;SDS011;67381;47.672;9.380;2023-04-24T14:18:04;5.82;;;1.75;;
78131;SDS011;67381;47.672;9.380;2023-04-24T14:20:32;2.35;;;1.60;;
78131;SDS011;67381;47.672;9.380;2023-04-24T14:22:59;3.17;;;1.40;;
78131;SDS011;67381;47.672;9.380;2023-04-24T14:25:26;2.45;;;1.38;;
78131;SDS011;67381;47.672;9.380;2023-04-24T14:27:54;3.90;;;1.70;;
78131;SDS011;67381;47.672;9.380;2023-04-24T14:30:21;5.78;;;1.77;;
78131;SDS011;67381;47.672;9.380;2023-04-24T14:32:48;3.20;;;1.48;;
78131;SDS011;67381;47.672;9.380;2023-04-24T14:35:16;3.10;;;1.50;;
78131;SDS011;67381;47.672;9.380;2023-04-24T14:37:43;3.50;;;1.52;;
78131;SDS011;67381;47.672;9.380;2023-04-24T14:40:11;3.25;;;1.63;;
78131;SDS011;67381;47.672;9.380;2023-04-24T14:42:46;4.15;;;1.27;;
78131;SDS011;67381;47.672;9.380;2023-04-24T14:45:14;3.78;;;1.83;;
78131;SDS011;67381;47.672;9.380;2023-04-24T14:47:41;3.60;;;1.48;;
78131;SDS011;67381;47.672;9.380;2023-04-24T14:50:08;2.83;;;1.50;;
78131;SDS011;67381;47.672;9.380;2023-04-24T14:52:36;4.00;;;1.80;;
78131;SDS011;67381;47.672;9.380;2023-04-24T14:55:04;2.45;;;1.80;;
78131;SDS011;67381;47.672;9.380;2023-04-24T14:57:33;4.22;;;1.50;;
78131;SDS011;67381;47.672;9.380;2023-04-24T15:00:05;3.15;;;1.50;;
78131;SDS011;67381;47.672;9.380;2023-04-24T15:02:35;3.38;;;1.60;;
78131;SDS011;67381;47.672;9.380;2023-04-24T15:05:06;2.97;;;1.42;;